sensor_id;sensor_type;location;lat;lon;timestamp;temperature;humidity
70068;DHT22;57425;51.616;6.680;2023-09-07T00:01:45;23.40;64.40
70068;DHT22;57425;51.616;6.680;2023-09-07T00:04:11;23.40;64.40
70068;DHT22;57425;51.616;6.680;2023-09-07T00:06:39;23.30;64.30
70068;DHT22;57425;51.616;6.680;2023-09-07T00:09:05;23.40;64.30
70068;DHT22;57425;51.616;6.680;2023-09-07T00:11:32;23.30;64.30
70068;DHT22;57425;51.616;6.680;2023-09-07T00:13:58;23.30;64.30
70068;DHT22;57425;51.616;6.680;2023-09-07T00:16:25;23.30;64.50
70068;DHT22;57425;51.616;6.680;2023-09-07T00:18:50;23.30;64.40
70068;DHT22;57425;51.616;6.680;2023-09-07T00:21:16;23.20;64.30
70068;DHT22;57425;51.616;6.680;2023-09-07T00:23:42;23.30;64.30
70068;DHT22;57425;51.616;6.680;2023-09-07T00:26:09;23.50;90.80
70068;DHT22;57425;51.616;6.680;2023-09-07T00:28:38;23.30;83.90
70068;DHT22;57425;51.616;6.680;2023-09-07T00:31:03;23.20;64.60
70068;DHT22;57425;51.616;6.680;2023-09-07T00:33:29;23.20;67.50
70068;DHT22;57425;51.616;6.680;2023-09-07T00:35:54;23.20;70.20
70068;DHT22;57425;51.616;6.680;2023-09-07T00:38:20;23.30;75.70
70068;DHT22;57425;51.616;6.680;2023-09-07T00:40:46;23.40;78.10
70068;DHT22;57425;51.616;6.680;2023-09-07T00:43:12;23.10;64.70
70068;DHT22;57425;51.616;6.680;2023-09-07T00:45:38;23.10;64.20
70068;DHT22;57425;51.616;6.680;2023-09-07T00:48:05;23.10;64.20
70068;DHT22;57425;51.616;6.680;2023-09-07T00:50:30;23.00;64.00
70068;DHT22;57425;51.616;6.680;2023-09-07T00:52:56;23.10;64.20
70068;DHT22;57425;51.616;6.680;2023-09-07T00:55:23;23.10;64.20
70068;DHT22;57425;51.616;6.680;2023-09-07T00:57:49;23.00;64.20
70068;DHT22;57425;51.616;6.680;2023-09-07T01:00:15;23.00;64.10
70068;DHT22;57425;51.616;6.680;2023-09-07T01:02:40;23.00;64.10
70068;DHT22;57425;51.616;6.680;2023-09-07T01:05:10;23.00;64.10
70068;DHT22;57425;51.616;6.680;2023-09-07T01:07:43;23.00;64.20
70068;DHT22;57425;51.616;6.680;2023-09-07T01:10:10;22.90;64.10
70068;DHT22;57425;51.616;6.680;2023-09-07T01:12:35;22.90;64.20
70068;DHT22;57425;51.616;6.680;2023-09-07T01:15:01;22.90;64.10
70068;DHT22;57425;51.616;6.680;2023-09-07T01:17:30;22.90;64.10
70068;DHT22;57425;51.616;6.680;2023-09-07T01:19:57;22.90;64.20
70068;DHT22;57425;51.616;6.680;2023-09-07T01:22:24;22.90;64.20
70068;DHT22;57425;51.616;6.680;2023-09-07T01:24:50;22.90;64.30
70068;DHT22;57425;51.616;6.680;2023-09-07T01:27:18;22.80;64.20
70068;DHT22;57425;51.616;6.680;2023-09-07T01:29:44;22.80;64.20
70068;DHT22;57425;51.616;6.680;2023-09-07T01:32:10;22.80;64.20
70068;DHT22;57425;51.616;6.680;2023-09-07T01:34:36;22.80;64.20
70068;DHT22;57425;51.616;6.680;2023-09-07T01:37:02;22.80;64.20
70068;DHT22;57425;51.616;6.680;2023-09-07T01:39:28;22.80;64.20
70068;DHT22;57425;51.616;6.680;2023-09-07T01:41:53;22.70;64.20
70068;DHT22;57425;51.616;6.680;2023-09-07T01:44:19;22.70;64.40
70068;DHT22;57425;51.616;6.680;2023-09-07T01:46:45;22.70;64.20
70068;DHT22;57425;51.616;6.680;2023-09-07T01:51:36;22.60;63.70
70068;DHT22;57425;51.616;6.680;2023-09-07T01:54:02;22.60;64.30
70068;DHT22;57425;51.616;6.680;2023-09-07T01:56:28;22.60;64.20
70068;DHT22;57425;51.616;6.680;2023-09-07T01:58:53;22.60;64.20
70068;DHT22;57425;51.616;6.680;2023-09-07T02:01:29;22.60;64.30
70068;DHT22;57425;51.616;6.680;2023-09-07T02:03:55;22.60;64.30
70068;DHT22;57425;51.616;6.680;2023-09-07T02:06:21;22.50;64.30
70068;DHT22;57425;51.616;6.680;2023-09-07T02:08:47;22.50;64.40
70068;DHT22;57425;51.616;6.680;2023-09-07T02:11:14;22.50;64.30
